Terminal Aerodrome Forecast
Issued by NWS Sterling, VA

Current Version | Previous Version | Graphics & Text | Print | Product List | Glossary On
Versions: 1 2 3 4 5 6 7 8 9 10 11 12 13 14 15 16 17 18 19 20 21 22 23 24 25 26 27 28 29
000
FTUS41 KLWX 042340
TAFIAD
TAF
KIAD 042340Z 0500/0606 10007KT P6SM SCT150 BKN220
     FM050200 08009G16KT P6SM BKN040
     FM050600 08006KT P6SM SCT015 BKN025
     FM050900 05006KT P6SM BKN007 OVC012
     FM051300 06007KT P6SM OVC020
     FM051600 09008KT P6SM SCT050=

USA.gov is the U.S. government's official web portal to all federal, state and local government web resources and services.